Terminal Aerodrome Forecast
Issued by NWS Charleston, WV

Current Version | Previous Version | Text Only | Print | Product List | Glossary Off
Versions: 1 2 3 4 5 6 7 8 9 10 11 12 13 14 15 16 17 18 19 20 21 22 23 24 25 26

000
FTUS41 KRLX 061735
TAFBKW
TAF
KBKW 061735Z 0618/0718 26006KT P6SM SHRA VCTS BKN015CB
     FM062200 27006KT P6SM SHRA BKN020
     FM070000 VRB03KT P6SM BKN025
     FM070200 24004KT P6SM BKN035
     FM070700 20005KT 5SM BR SCT015
     FM071300 22005KT 6SM BR SCT080
     FM071400 22005KT P6SM SCT060=

USA.gov is the U.S. government's official web portal to all federal, state and local government web resources and services.